Time;durP1;ratioP1;P1;durP2;ratioP2;P2;SDS_P1;SDS_P2;PMS_P1;PMS_P2;Temp;Humidity;BMP_temperature;BMP_pressure;BME280_temperature;BME280_humidity;BME280_pressure;Samples;Min_cycle;Max_cycle;Signal;HPM_P1;HPM_P2
2021/08/11 00:00:17;;;;;;;10.73;8.15;;;;;;;;;;5036479;28;20406;-90
2021/08/11 00:02:44;;;;;;;9.68;8.60;;;;;;;;;;5035570;28;20413;-91
2021/08/11 00:05:12;;;;;;;9.47;8.00;;;;;;;;;;5044070;28;20412;-89
2021/08/11 00:07:39;;;;;;;8.73;7.82;;;;;;;;;;5037705;28;20399;-92
2021/08/11 00:10:09;;;;;;;10.37;7.97;;;;;;;;;;5036315;28;20435;-89
2021/08/11 00:12:36;;;;;;;10.13;8.00;;;;;;;;;;5037069;28;21055;-92
2021/08/11 00:15:04;;;;;;;9.30;8.35;;;;;;;;;;5040209;28;20415;-91
2021/08/11 00:17:32;;;;;;;8.68;7.88;;;;;;;;;;5045887;28;20504;-92
2021/08/11 00:19:59;;;;;;;8.40;7.55;;;;;;;;;;5042755;28;20490;-90
2021/08/11 00:22:26;;;;;;;8.40;7.60;;;;;;;;;;5040876;28;20776;-91
2021/08/11 00:24:52;;;;;;;10.10;8.00;;;;;;;;;;5041987;28;20886;-90
2021/08/11 00:27:21;;;;;;;8.30;7.30;;;;;;;;;;5042066;28;20425;-90
2021/08/11 00:29:48;;;;;;;9.85;7.40;;;;;;;;;;5039611;28;20469;-91
2021/08/11 00:32:15;;;;;;;9.25;7.15;;;;;;;;;;5042489;28;20410;-90
2021/08/11 00:34:42;;;;;;;8.68;7.78;;;;;;;;;;5043629;28;20420;-90
2021/08/11 00:37:09;;;;;;;8.80;7.97;;;;;;;;;;5045107;28;20931;-90
2021/08/11 00:39:36;;;;;;;10.05;8.48;;;;;;;;;;5039677;28;20409;-90
2021/08/11 00:42:04;;;;;;;10.27;8.40;;;;;;;;;;5041166;28;20411;-91
2021/08/11 00:44:32;;;;;;;9.60;8.20;;;;;;;;;;5055173;28;20495;-92
2021/08/11 00:46:59;;;;;;;10.25;7.97;;;;;;;;;;5050047;28;20412;-90
2021/08/11 00:49:26;;;;;;;8.43;7.60;;;;;;;;;;5049068;28;20394;-89
2021/08/11 00:51:53;;;;;;;8.70;7.80;;;;;;;;;;5053624;28;20409;-90
2021/08/11 00:54:21;;;;;;;9.60;7.60;;;;;;;;;;5053566;28;20402;-91
2021/08/11 00:56:50;;;;;;;9.25;7.78;;;;;;;;;;5057529;28;20415;-90
2021/08/11 00:59:19;;;;;;;10.05;8.40;;;;;;;;;;5057292;28;20400;-91
2021/08/11 01:01:50;;;;;;;10.30;8.23;;;;;;;;;;5067616;28;20410;-90
2021/08/11 01:04:18;;;;;;;8.73;7.82;;;;;;;;;;5072654;28;20403;-90
2021/08/11 01:06:45;;;;;;;11.07;8.13;;;;;;;;;;5075318;28;20399;-91
2021/08/11 01:09:14;;;;;;;8.23;7.40;;;;;;;;;;5077043;28;20879;-90
2021/08/11 01:11:44;;;;;;;10.25;7.95;;;;;;;;;;5071596;28;20404;-91
2021/08/11 01:14:13;;;;;;;9.60;7.88;;;;;;;;;;5069948;28;20961;-90
2021/08/11 01:16:39;;;;;;;8.37;7.63;;;;;;;;;;5071333;28;20494;-90
2021/08/11 01:19:08;;;;;;;9.90;7.50;;;;;;;;;;5072292;28;20384;-91
2021/08/11 01:21:41;;;;;;;8.30;7.50;;;;;;;;;;5070510;28;20399;-91
2021/08/11 01:24:19;;;;;;;9.18;7.40;;;;;;;;;;5069809;28;20391;-89
2021/08/11 01:27:05;;;;;;;10.40;7.50;;;;;;;;;;5070632;28;20412;-91
2021/08/11 01:29:46;;;;;;;10.48;7.70;;;;;;;;;;5065571;28;20394;-92
2021/08/11 01:32:16;;;;;;;10.30;7.88;;;;;;;;;;5056188;28;20766;-90
2021/08/11 01:34:47;;;;;;;9.38;8.07;;;;;;;;;;5055175;28;20952;-90
2021/08/11 01:37:19;;;;;;;9.20;8.30;;;;;;;;;;5057562;28;20416;-91
2021/08/11 01:39:54;;;;;;;10.15;9.05;;;;;;;;;;5056660;28;20409;-91
2021/08/11 01:42:26;;;;;;;10.63;9.63;;;;;;;;;;5055714;28;20403;-92
2021/08/11 01:44:58;;;;;;;10.43;9.27;;;;;;;;;;5055472;28;20861;-91
2021/08/11 01:47:28;;;;;;;10.60;8.57;;;;;;;;;;5051967;28;20445;-91
2021/08/11 01:49:56;;;;;;;10.82;8.52;;;;;;;;;;5057444;28;20537;-91
2021/08/11 01:52:24;;;;;;;9.85;8.68;;;;;;;;;;5052795;28;20426;-91
2021/08/11 01:54:52;;;;;;;11.68;9.43;;;;;;;;;;5050796;28;20404;-90
2021/08/11 01:57:19;;;;;;;11.02;8.55;;;;;;;;;;5048904;28;20427;-91
2021/08/11 01:59:48;;;;;;;9.93;8.93;;;;;;;;;;5045808;28;20411;-91
2021/08/11 02:02:16;;;;;;;10.98;9.05;;;;;;;;;;5048618;28;20404;-90
2021/08/11 02:04:43;;;;;;;9.73;8.85;;;;;;;;;;5047192;28;20416;-90
2021/08/11 02:07:13;;;;;;;10.60;9.20;;;;;;;;;;5046862;28;20415;-90
2021/08/11 02:09:40;;;;;;;10.40;9.05;;;;;;;;;;5041497;28;20941;-91
2021/08/11 02:12:07;;;;;;;10.57;9.50;;;;;;;;;;5046876;28;20407;-90
2021/08/11 02:14:35;;;;;;;10.95;8.98;;;;;;;;;;5047330;28;20411;-92
2021/08/11 02:17:02;;;;;;;9.90;8.90;;;;;;;;;;5046978;28;20423;-92
2021/08/11 02:19:29;;;;;;;11.15;9.00;;;;;;;;;;5050438;28;20404;-91
2021/08/11 02:21:55;;;;;;;10.73;9.15;;;;;;;;;;5046471;28;20415;-92
2021/08/11 02:24:24;;;;;;;12.23;10.00;;;;;;;;;;5047719;28;20412;-92
2021/08/11 02:26:53;;;;;;;10.60;9.50;;;;;;;;;;5050586;28;20405;-90
2021/08/11 02:29:27;;;;;;;10.48;9.38;;;;;;;;;;5046699;28;20395;-90
2021/08/11 02:32:05;;;;;;;11.05;9.85;;;;;;;;;;5047226;28;20403;-90
2021/08/11 02:34:39;;;;;;;12.15;10.30;;;;;;;;;;5045358;28;20410;-89
2021/08/11 02:37:12;;;;;;;11.10;9.70;;;;;;;;;;5046085;28;20477;-90
2021/08/11 02:39:47;;;;;;;13.90;9.65;;;;;;;;;;5041867;28;20403;-90
2021/08/11 02:42:23;;;;;;;10.25;9.23;;;;;;;;;;5045941;28;20428;-90
2021/08/11 02:44:54;;;;;;;11.50;10.05;;;;;;;;;;5045873;28;20449;-91
2021/08/11 02:47:22;;;;;;;10.82;9.73;;;;;;;;;;5045470;28;20396;-90
2021/08/11 02:49:50;;;;;;;12.17;9.80;;;;;;;;;;5046121;28;20403;-90
2021/08/11 02:52:19;;;;;;;12.10;9.73;;;;;;;;;;5047018;28;20418;-90
2021/08/11 02:54:48;;;;;;;10.35;9.25;;;;;;;;;;5046293;28;20737;-90
2021/08/11 02:57:16;;;;;;;10.98;9.73;;;;;;;;;;5045615;28;20415;-91
2021/08/11 02:59:43;;;;;;;10.68;9.18;;;;;;;;;;5045672;28;20884;-90
2021/08/11 03:02:10;;;;;;;9.88;8.88;;;;;;;;;;5045569;28;20399;-91
2021/08/11 03:04:37;;;;;;;11.77;8.77;;;;;;;;;;5045897;28;20403;-90
2021/08/11 03:07:04;;;;;;;9.88;8.88;;;;;;;;;;5046048;28;20414;-90
2021/08/11 03:09:31;;;;;;;10.32;8.68;;;;;;;;;;5045670;28;20414;-91
2021/08/11 03:12:01;;;;;;;9.93;8.90;;;;;;;;;;5045576;28;20407;-91
2021/08/11 03:14:28;;;;;;;10.68;8.48;;;;;;;;;;5044228;28;20489;-90
2021/08/11 03:16:55;;;;;;;10.80;8.55;;;;;;;;;;5045283;28;20415;-91
2021/08/11 03:19:22;;;;;;;11.35;8.73;;;;;;;;;;5045145;28;20408;-91
2021/08/11 03:21:49;;;;;;;9.68;8.70;;;;;;;;;;5045068;28;20396;-91
2021/08/11 03:24:17;;;;;;;9.80;8.90;;;;;;;;;;5046936;28;20399;-91
2021/08/11 03:26:44;;;;;;;9.63;8.37;;;;;;;;;;5045292;28;20931;-90
2021/08/11 03:29:13;;;;;;;9.73;8.27;;;;;;;;;;5045206;28;20408;-91
2021/08/11 03:31:40;;;;;;;12.65;8.88;;;;;;;;;;5049313;28;20420;-91
2021/08/11 03:34:06;;;;;;;10.40;8.45;;;;;;;;;;5046001;28;20399;-91
2021/08/11 03:36:34;;;;;;;11.40;8.63;;;;;;;;;;5045917;28;20415;-89
2021/08/11 03:39:01;;;;;;;9.23;8.15;;;;;;;;;;5045140;28;20898;-90
2021/08/11 03:41:28;;;;;;;9.67;8.03;;;;;;;;;;5048832;28;20404;-91
2021/08/11 03:43:54;;;;;;;8.50;7.70;;;;;;;;;;5045335;28;20453;-91
2021/08/11 03:46:23;;;;;;;9.98;8.38;;;;;;;;;;5046483;28;20911;-90
2021/08/11 03:48:50;;;;;;;8.90;8.10;;;;;;;;;;5049579;28;20406;-92
2021/08/11 03:51:17;;;;;;;9.98;7.88;;;;;;;;;;5049550;28;20919;-90
2021/08/11 03:53:44;;;;;;;9.15;8.25;;;;;;;;;;5048963;28;20902;-89
2021/08/11 03:56:10;;;;;;;9.23;8.32;;;;;;;;;;5049949;28;21209;-90
2021/08/11 03:58:37;;;;;;;9.35;8.18;;;;;;;;;;5053407;28;20410;-92
2021/08/11 04:01:05;;;;;;;10.20;8.95;;;;;;;;;;5049587;28;20403;-91
2021/08/11 04:03:33;;;;;;;9.77;8.88;;;;;;;;;;5045161;28;20516;-92
2021/08/11 04:06:00;;;;;;;9.65;8.35;;;;;;;;;;5043027;28;20415;-91
2021/08/11 04:08:27;;;;;;;10.00;9.00;;;;;;;;;;5054979;28;20414;-90
2021/08/11 04:10:54;;;;;;;9.60;8.63;;;;;;;;;;5054687;28;20393;-90
2021/08/11 04:13:21;;;;;;;10.03;9.10;;;;;;;;;;5057800;28;20401;-90
2021/08/11 04:15:48;;;;;;;11.07;8.93;;;;;;;;;;5058419;28;20412;-91
2021/08/11 04:18:16;;;;;;;10.85;8.90;;;;;;;;;;5054407;28;20425;-91
2021/08/11 04:20:45;;;;;;;9.32;8.27;;;;;;;;;;5058067;28;20654;-90
2021/08/11 04:23:13;;;;;;;9.30;8.38;;;;;;;;;;5056029;28;20412;-90
2021/08/11 04:25:41;;;;;;;11.15;8.10;;;;;;;;;;5057810;28;20461;-91
2021/08/11 04:28:09;;;;;;;8.50;7.70;;;;;;;;;;5052011;28;20422;-91
2021/08/11 04:30:36;;;;;;;8.52;7.50;;;;;;;;;;5056158;28;20403;-92
2021/08/11 04:33:03;;;;;;;10.75;8.18;;;;;;;;;;5054467;28;20406;-90
2021/08/11 04:35:30;;;;;;;11.05;8.25;;;;;;;;;;5056348;28;20417;-91
2021/08/11 04:37:58;;;;;;;9.48;8.13;;;;;;;;;;5055889;28;20745;-91
2021/08/11 04:40:25;;;;;;;10.55;7.95;;;;;;;;;;5055304;28;20430;-90
2021/08/11 04:42:52;;;;;;;8.55;7.70;;;;;;;;;;5056688;28;20896;-91
2021/08/11 04:45:19;;;;;;;9.00;8.18;;;;;;;;;;5054626;28;20444;-91
2021/08/11 04:47:47;;;;;;;8.77;7.78;;;;;;;;;;5056596;28;20425;-90
2021/08/11 04:50:14;;;;;;;9.70;7.90;;;;;;;;;;5055653;28;20396;-90
2021/08/11 04:52:41;;;;;;;8.98;7.90;;;;;;;;;;5052560;28;20898;-89
2021/08/11 04:55:13;;;;;;;9.98;8.02;;;;;;;;;;5056179;28;20410;-91
2021/08/11 04:57:40;;;;;;;11.73;8.63;;;;;;;;;;5057591;28;20469;-89
2021/08/11 05:00:08;;;;;;;8.88;7.90;;;;;;;;;;5054147;28;20400;-89
2021/08/11 05:02:35;;;;;;;11.85;8.18;;;;;;;;;;5054628;28;20414;-90
2021/08/11 05:05:02;;;;;;;13.57;8.30;;;;;;;;;;5049712;28;20437;-91
2021/08/11 05:07:29;;;;;;;8.83;7.87;;;;;;;;;;5050423;28;20980;-91
2021/08/11 05:09:56;;;;;;;10.10;7.72;;;;;;;;;;5050520;28;20764;-91
2021/08/11 05:12:25;;;;;;;9.23;8.23;;;;;;;;;;5054068;28;20410;-89
2021/08/11 05:14:52;;;;;;;9.30;7.47;;;;;;;;;;5051628;28;20402;-90
2021/08/11 05:17:21;;;;;;;9.90;8.05;;;;;;;;;;5055842;28;20414;-91
2021/08/11 05:19:48;;;;;;;10.85;8.00;;;;;;;;;;5054088;28;20424;-91
2021/08/11 05:22:15;;;;;;;8.83;7.90;;;;;;;;;;5055287;28;20406;-90
2021/08/11 05:24:42;;;;;;;9.33;7.60;;;;;;;;;;5055758;28;20399;-91
2021/08/11 05:27:09;;;;;;;8.93;7.80;;;;;;;;;;5053036;28;20900;-91
2021/08/11 05:29:39;;;;;;;9.50;7.97;;;;;;;;;;5048357;28;20835;-91
2021/08/11 05:32:07;;;;;;;11.60;7.93;;;;;;;;;;5055822;28;20404;-90
2021/08/11 05:34:33;;;;;;;10.52;8.20;;;;;;;;;;5049829;28;20412;-93
2021/08/11 05:37:00;;;;;;;10.25;7.75;;;;;;;;;;5052770;28;20415;-92
2021/08/11 05:39:27;;;;;;;9.13;7.72;;;;;;;;;;5052837;28;21012;-93
2021/08/11 05:41:54;;;;;;;10.32;7.75;;;;;;;;;;5055536;28;20411;-92
2021/08/11 05:44:21;;;;;;;10.65;7.45;;;;;;;;;;5053726;28;20401;-92
2021/08/11 05:46:49;;;;;;;7.80;7.07;;;;;;;;;;5051807;28;20403;-92
2021/08/11 05:49:16;;;;;;;8.33;7.43;;;;;;;;;;5051581;28;20422;-91
2021/08/11 05:51:44;;;;;;;8.43;7.33;;;;;;;;;;5056911;28;20459;-92
2021/08/11 05:54:11;;;;;;;8.63;7.18;;;;;;;;;;5055918;28;20415;-93
2021/08/11 05:56:39;;;;;;;9.10;6.88;;;;;;;;;;5051910;28;20413;-92
2021/08/11 05:59:06;;;;;;;9.63;7.03;;;;;;;;;;5052775;28;20426;-92
2021/08/11 06:01:32;;;;;;;8.30;6.90;;;;;;;;;;5052830;28;20399;-91
2021/08/11 06:04:01;;;;;;;8.55;6.30;;;;;;;;;;5052484;28;20411;-91
2021/08/11 06:06:29;;;;;;;8.23;6.53;;;;;;;;;;5059361;28;20401;-92
2021/08/11 06:08:56;;;;;;;8.52;7.15;;;;;;;;;;5058474;28;20889;-91
2021/08/11 06:11:23;;;;;;;7.90;6.50;;;;;;;;;;5053768;28;20429;-91
2021/08/11 06:13:50;;;;;;;8.40;6.80;;;;;;;;;;5056811;28;20728;-89
2021/08/11 06:16:17;;;;;;;7.97;6.83;;;;;;;;;;5056233;28;20866;-91
2021/08/11 06:18:44;;;;;;;10.03;7.00;;;;;;;;;;5055753;28;20528;-90
2021/08/11 06:21:13;;;;;;;8.60;7.00;;;;;;;;;;5055849;28;20444;-92
2021/08/11 06:23:39;;;;;;;9.23;6.53;;;;;;;;;;5053768;28;20686;-91
2021/08/11 06:26:06;;;;;;;8.60;6.50;;;;;;;;;;5053391;28;20395;-91
2021/08/11 06:28:33;;;;;;;7.03;6.22;;;;;;;;;;5054868;28;20410;-91
2021/08/11 06:31:00;;;;;;;8.68;6.70;;;;;;;;;;5050758;28;20857;-91
2021/08/11 06:33:27;;;;;;;7.90;6.50;;;;;;;;;;5044170;28;20406;-91
2021/08/11 06:35:54;;;;;;;7.03;6.27;;;;;;;;;;5053208;28;20430;-91
2021/08/11 06:38:22;;;;;;;7.78;6.32;;;;;;;;;;5054612;28;20414;-91
2021/08/11 06:40:49;;;;;;;8.63;6.57;;;;;;;;;;5053413;28;20781;-91
2021/08/11 06:43:17;;;;;;;7.85;6.13;;;;;;;;;;5055234;28;20403;-91
2021/08/11 06:45:44;;;;;;;8.43;6.25;;;;;;;;;;5055120;28;20412;-89
2021/08/11 06:48:12;;;;;;;6.40;5.72;;;;;;;;;;5054481;28;20764;-91
2021/08/11 06:50:39;;;;;;;10.20;6.03;;;;;;;;;;5044310;28;20422;-89
2021/08/11 06:53:06;;;;;;;6.63;5.57;;;;;;;;;;5052066;28;20788;-89
2021/08/11 06:55:34;;;;;;;9.48;6.18;;;;;;;;;;5055102;28;20424;-88
2021/08/11 06:58:01;;;;;;;6.60;5.65;;;;;;;;;;5054177;28;20417;-91
2021/08/11 07:00:28;;;;;;;8.48;6.10;;;;;;;;;;5052706;28;20402;-91
2021/08/11 07:02:55;;;;;;;6.70;5.32;;;;;;;;;;5049833;28;21368;-90
2021/08/11 07:05:22;;;;;;;10.10;6.30;;;;;;;;;;5047468;28;20405;-91
2021/08/11 07:07:48;;;;;;;7.05;6.18;;;;;;;;;;5054878;28;20402;-89
2021/08/11 07:10:17;;;;;;;7.07;6.00;;;;;;;;;;5050937;28;20410;-92
2021/08/11 07:12:47;;;;;;;6.55;5.90;;;;;;;;;;5047866;28;20835;-90
2021/08/11 07:15:15;;;;;;;9.25;6.10;;;;;;;;;;5050463;28;20411;-91
2021/08/11 07:17:53;;;;;;;6.80;6.10;;;;;;;;;;5051827;28;20445;-90
2021/08/11 07:20:22;;;;;;;7.75;6.32;;;;;;;;;;5052744;28;20430;-90
2021/08/11 07:22:51;;;;;;;8.43;6.23;;;;;;;;;;5054723;28;20389;-90
2021/08/11 07:25:20;;;;;;;6.10;5.50;;;;;;;;;;5053696;28;20418;-92
2021/08/11 07:27:48;;;;;;;7.93;6.22;;;;;;;;;;5052167;28;20492;-90
2021/08/11 07:30:17;;;;;;;9.40;6.78;;;;;;;;;;5052359;28;20411;-92
2021/08/11 07:32:44;;;;;;;8.95;6.60;;;;;;;;;;5051810;28;20950;-84
2021/08/11 07:35:12;;;;;;;8.80;6.40;;;;;;;;;;5051772;28;20687;-85
2021/08/11 07:37:46;;;;;;;8.68;6.55;;;;;;;;;;5053634;28;20899;-90
2021/08/11 07:40:14;;;;;;;9.38;6.88;;;;;;;;;;5051661;28;20491;-91
2021/08/11 07:42:41;;;;;;;8.38;7.32;;;;;;;;;;5049275;28;20453;-89
2021/08/11 07:45:12;;;;;;;7.80;7.00;;;;;;;;;;5051188;28;20407;-91
2021/08/11 07:47:39;;;;;;;8.60;6.68;;;;;;;;;;5051517;28;20410;-90
2021/08/11 07:50:08;;;;;;;10.05;7.43;;;;;;;;;;5051495;28;20402;-90
2021/08/11 07:52:35;;;;;;;10.25;7.20;;;;;;;;;;5043207;28;20415;-90
2021/08/11 07:55:02;;;;;;;7.70;6.90;;;;;;;;;;5042145;28;20412;-91
2021/08/11 07:57:29;;;;;;;8.68;6.55;;;;;;;;;;5041094;28;20413;-92
2021/08/11 07:59:55;;;;;;;9.05;6.75;;;;;;;;;;5044684;28;20399;-90
2021/08/11 08:02:24;;;;;;;7.07;6.38;;;;;;;;;;5047099;28;20408;-90
2021/08/11 08:04:51;;;;;;;7.47;5.80;;;;;;;;;;5045837;28;20404;-90
2021/08/11 08:07:17;;;;;;;7.32;6.00;;;;;;;;;;5045921;28;20407;-90
2021/08/11 08:09:44;;;;;;;7.25;5.68;;;;;;;;;;5045982;28;20408;-89
2021/08/11 08:12:11;;;;;;;6.90;5.97;;;;;;;;;;5043639;28;20412;-91
2021/08/11 08:14:39;;;;;;;7.38;5.85;;;;;;;;;;5045596;28;20414;-90
2021/08/11 08:17:06;;;;;;;6.55;5.85;;;;;;;;;;5044029;28;20404;-91
2021/08/11 08:19:53;;;;;;;7.15;6.28;;;;;;;;;;5039910;28;20421;-91
2021/08/11 08:22:20;;;;;;;7.97;5.88;;;;;;;;;;5044760;28;20905;-91
2021/08/11 08:24:47;;;;;;;9.05;6.43;;;;;;;;;;5053487;28;20407;-91
2021/08/11 08:27:13;;;;;;;8.63;6.75;;;;;;;;;;5053757;28;20404;-92
2021/08/11 08:29:40;;;;;;;9.00;6.60;;;;;;;;;;5048131;28;20434;-92
2021/08/11 08:32:07;;;;;;;9.48;6.28;;;;;;;;;;5053532;28;20411;-91
2021/08/11 08:34:36;;;;;;;7.95;6.03;;;;;;;;;;5048156;28;20407;-94
2021/08/11 08:37:03;;;;;;;9.53;6.47;;;;;;;;;;5050276;28;20423;-92
2021/08/11 08:39:30;;;;;;;9.60;5.95;;;;;;;;;;5057943;28;20410;-95
2021/08/11 08:41:57;;;;;;;8.57;5.57;;;;;;;;;;5052957;28;20395;-94
2021/08/11 08:44:24;;;;;;;6.10;5.45;;;;;;;;;;5057785;28;20404;-91
2021/08/11 08:46:53;;;;;;;6.20;5.55;;;;;;;;;;5056832;28;20400;-94
2021/08/11 08:49:20;;;;;;;8.38;5.30;;;;;;;;;;5054216;28;20817;-92
2021/08/11 08:51:50;;;;;;;6.90;5.47;;;;;;;;;;5058077;28;20408;-94
2021/08/11 08:54:21;;;;;;;7.97;5.82;;;;;;;;;;5060028;28;20435;-94
2021/08/11 08:56:48;;;;;;;6.95;5.60;;;;;;;;;;5056657;28;20411;-94
2021/08/11 08:59:15;;;;;;;6.45;5.30;;;;;;;;;;5058316;28;20899;-94
2021/08/11 09:01:42;;;;;;;6.18;5.57;;;;;;;;;;5058184;28;20408;-93
2021/08/11 09:04:09;;;;;;;6.67;5.67;;;;;;;;;;5055982;28;20411;-93
2021/08/11 09:06:37;;;;;;;7.67;5.53;;;;;;;;;;5056191;28;20408;-92
2021/08/11 09:09:08;;;;;;;7.20;5.23;;;;;;;;;;5054702;28;20402;-95
2021/08/11 09:11:35;;;;;;;5.65;5.10;;;;;;;;;;5053354;28;20899;-94
2021/08/11 09:14:16;;;;;;;5.20;4.70;;;;;;;;;;5054139;28;20412;-95
2021/08/11 09:16:47;;;;;;;7.47;5.13;;;;;;;;;;5053154;28;21032;-94
2021/08/11 09:19:15;;;;;;;6.85;5.00;;;;;;;;;;5048460;28;20431;-95
2021/08/11 09:21:42;;;;;;;8.55;5.30;;;;;;;;;;5052557;28;20398;-95
2021/08/11 09:24:19;;;;;;;8.32;5.10;;;;;;;;;;5058700;28;20410;-94
2021/08/11 09:26:46;;;;;;;7.30;5.13;;;;;;;;;;5058980;28;20415;-94
2021/08/11 09:29:13;;;;;;;7.13;5.45;;;;;;;;;;5057752;28;20422;-94
2021/08/11 09:31:40;;;;;;;5.77;5.17;;;;;;;;;;5043693;28;20408;-92
2021/08/11 09:34:10;;;;;;;7.78;5.30;;;;;;;;;;5041291;28;20404;-94
2021/08/11 09:36:48;;;;;;;5.97;5.10;;;;;;;;;;5048883;28;20408;-93
2021/08/11 09:39:16;;;;;;;5.70;5.10;;;;;;;;;;5035656;28;20415;-94
2021/08/11 09:42:00;;;;;;;6.03;5.43;;;;;;;;;;5053912;28;20410;-93
2021/08/11 09:44:28;;;;;;;6.45;4.90;;;;;;;;;;5049254;28;20706;-93
2021/08/11 09:46:55;;;;;;;7.53;5.30;;;;;;;;;;5048677;28;20407;-94
2021/08/11 09:49:24;;;;;;;8.57;4.77;;;;;;;;;;5057008;28;20772;-93
2021/08/11 09:51:59;;;;;;;6.22;5.60;;;;;;;;;;5036987;28;20410;-93
2021/08/11 09:54:27;;;;;;;8.35;4.95;;;;;;;;;;5049083;28;20414;-93
2021/08/11 09:56:54;;;;;;;6.43;5.00;;;;;;;;;;5037940;28;20409;-95
2021/08/11 09:59:23;;;;;;;7.10;5.10;;;;;;;;;;5037300;28;20720;-94
2021/08/11 10:01:50;;;;;;;5.63;4.90;;;;;;;;;;5040364;28;20417;-93
2021/08/11 10:04:19;;;;;;;7.07;5.20;;;;;;;;;;5045328;28;20963;-94
2021/08/11 10:06:47;;;;;;;5.80;5.20;;;;;;;;;;5048622;28;20929;-93
2021/08/11 10:09:16;;;;;;;6.97;5.30;;;;;;;;;;5048182;28;20619;-95
2021/08/11 10:11:47;;;;;;;6.22;4.93;;;;;;;;;;5041587;28;20794;-93
2021/08/11 10:14:21;;;;;;;6.33;5.30;;;;;;;;;;5063954;22;20443;-96
2021/08/11 10:16:50;;;;;;;7.05;5.53;;;;;;;;;;5045809;28;20450;-96
2021/08/11 10:19:20;;;;;;;7.20;5.28;;;;;;;;;;5048876;28;20429;-95
2021/08/11 10:21:48;;;;;;;6.63;5.50;;;;;;;;;;5044748;28;20442;-96
2021/08/11 10:24:17;;;;;;;7.68;5.68;;;;;;;;;;5046568;28;20425;-96
2021/08/11 10:26:48;;;;;;;7.63;5.25;;;;;;;;;;5038894;28;21307;-96
2021/08/11 10:29:16;;;;;;;6.40;5.20;;;;;;;;;;5053178;28;20447;-96
2021/08/11 10:31:43;;;;;;;6.88;5.60;;;;;;;;;;5047225;28;20432;-96
2021/08/11 10:34:14;;;;;;;5.85;5.20;;;;;;;;;;5054012;28;20526;-96
2021/08/11 10:36:44;;;;;;;5.85;5.00;;;;;;;;;;5054955;28;20417;-94
2021/08/11 10:39:13;;;;;;;7.07;5.32;;;;;;;;;;5053973;28;20403;-96
2021/08/11 10:41:44;;;;;;;6.35;4.97;;;;;;;;;;5052685;28;20506;-96
2021/08/11 10:44:18;;;;;;;7.37;5.00;;;;;;;;;;5048822;28;20403;-96
2021/08/11 10:46:49;;;;;;;5.50;5.00;;;;;;;;;;5051106;28;20462;-96
2021/08/11 10:49:18;;;;;;;5.32;4.15;;;;;;;;;;5043698;28;21107;-96
2021/08/11 10:51:48;;;;;;;4.67;4.17;;;;;;;;;;5051780;28;20426;-96
2021/08/11 10:54:16;;;;;;;6.75;4.32;;;;;;;;;;5047132;28;20448;-96
2021/08/11 10:56:45;;;;;;;6.63;3.92;;;;;;;;;;5051852;28;20404;-96
2021/08/11 10:59:43;;;;;;;4.13;3.72;;;;;;;;;;5047703;28;20427;-96
2021/08/11 11:02:52;;;;;;;5.00;3.88;;;;;;;;;;5047192;28;20536;-95
2021/08/11 11:06:04;;;;;;;5.93;3.50;;;;;;;;;;4995289;28;20408;-95
2021/08/11 11:08:48;;;;;;;4.60;3.80;;;;;;;;;;5051760;28;20410;-96
2021/08/11 11:11:41;;;;;;;6.10;4.10;;;;;;;;;;5039617;28;20403;-96
2021/08/11 11:14:52;;;;;;;4.53;3.80;;;;;;;;;;5053324;28;20414;-96
2021/08/11 11:17:20;;;;;;;5.25;4.18;;;;;;;;;;5049233;28;20413;-96
2021/08/11 11:20:29;;;;;;;5.45;4.18;;;;;;;;;;5047628;28;20434;-96
2021/08/11 11:23:01;;;;;;;6.43;4.18;;;;;;;;;;5049294;28;20410;-96
2021/08/11 11:26:07;;;;;;;5.43;3.92;;;;;;;;;;5050088;28;20409;-95
2021/08/11 11:29:06;;;;;;;5.30;4.13;;;;;;;;;;5044989;28;20541;-96
2021/08/11 11:31:45;;;;;;;7.45;4.45;;;;;;;;;;5049205;28;20410;-96
2021/08/11 11:34:26;;;;;;;6.65;4.50;;;;;;;;;;5053770;28;20398;-96
2021/08/11 11:37:23;;;;;;;4.55;4.00;;;;;;;;;;5048414;28;20399;-93
2021/08/11 11:40:12;;;;;;;6.17;4.10;;;;;;;;;;5053134;28;20498;-94
2021/08/11 11:42:40;;;;;;;5.13;4.40;;;;;;;;;;5028230;28;20421;-94
2021/08/11 11:45:10;;;;;;;6.45;4.40;;;;;;;;;;5045958;28;20425;-95
2021/08/11 11:48:07;;;;;;;6.25;4.22;;;;;;;;;;5064238;28;20414;-95
2021/08/11 11:50:41;;;;;;;4.70;4.15;;;;;;;;;;4982683;28;20460;-94
2021/08/11 11:53:10;;;;;;;4.57;4.00;;;;;;;;;;5042691;28;20453;-95
2021/08/11 11:55:38;;;;;;;6.13;4.05;;;;;;;;;;5052334;28;20435;-95
2021/08/11 11:58:08;;;;;;;5.65;3.97;;;;;;;;;;5050043;28;20499;-95
2021/08/11 12:00:37;;;;;;;4.93;4.13;;;;;;;;;;5039985;28;20432;-95
2021/08/11 12:03:04;;;;;;;5.70;4.10;;;;;;;;;;5045399;28;20430;-96
2021/08/11 12:05:45;;;;;;;6.23;4.20;;;;;;;;;;5044232;28;20615;-95
2021/08/11 12:08:12;;;;;;;4.93;4.20;;;;;;;;;;5052176;28;20407;-95
2021/08/11 12:10:40;;;;;;;6.90;4.22;;;;;;;;;;5048011;28;20807;-95
2021/08/11 12:13:08;;;;;;;6.15;4.47;;;;;;;;;;5052201;28;20415;-95
2021/08/11 12:15:37;;;;;;;4.95;4.38;;;;;;;;;;5049405;28;20451;-95
2021/08/11 12:18:15;;;;;;;6.22;4.20;;;;;;;;;;5041444;28;20423;-96
2021/08/11 12:20:43;;;;;;;4.43;4.03;;;;;;;;;;5043755;28;20519;-94
2021/08/11 12:23:24;;;;;;;6.45;4.22;;;;;;;;;;5053146;28;20407;-96
2021/08/11 12:25:54;;;;;;;5.90;3.90;;;;;;;;;;5058855;28;20413;-94
2021/08/11 12:28:22;;;;;;;5.63;3.87;;;;;;;;;;5054916;28;20419;-96
2021/08/11 12:30:57;;;;;;;5.20;4.20;;;;;;;;;;5065351;28;20734;-96
2021/08/11 12:33:26;;;;;;;4.60;4.07;;;;;;;;;;5043937;28;20403;-95
2021/08/11 12:35:54;;;;;;;5.95;4.20;;;;;;;;;;5059634;28;20413;-96
2021/08/11 12:38:32;;;;;;;6.73;4.50;;;;;;;;;;5059138;28;20398;-96
2021/08/11 12:41:14;;;;;;;5.88;4.20;;;;;;;;;;5055636;28;20426;-95
2021/08/11 12:43:41;;;;;;;7.22;4.43;;;;;;;;;;5057991;28;20409;-95
2021/08/11 12:46:10;;;;;;;5.15;4.00;;;;;;;;;;5051069;28;20791;-96
2021/08/11 12:48:38;;;;;;;6.05;3.78;;;;;;;;;;5049429;28;20467;-96
2021/08/11 12:51:06;;;;;;;5.82;4.00;;;;;;;;;;5052101;28;20413;-96
2021/08/11 12:53:34;;;;;;;4.82;4.28;;;;;;;;;;5043203;28;20411;-95
2021/08/11 12:56:12;;;;;;;5.80;4.15;;;;;;;;;;5048596;28;20506;-95
2021/08/11 12:58:59;;;;;;;5.93;4.22;;;;;;;;;;5052255;28;20418;-96
2021/08/11 13:01:38;;;;;;;5.07;4.00;;;;;;;;;;5051780;28;20416;-95
2021/08/11 13:04:08;;;;;;;7.53;4.03;;;;;;;;;;5045411;28;20401;-96
2021/08/11 13:06:41;;;;;;;5.53;3.90;;;;;;;;;;5052318;28;20496;-96
2021/08/11 13:09:19;;;;;;;5.40;4.30;;;;;;;;;;5049362;28;20887;-96
2021/08/11 13:12:00;;;;;;;4.85;3.75;;;;;;;;;;5046451;28;20422;-96
2021/08/11 13:14:50;;;;;;;6.22;4.30;;;;;;;;;;5044594;28;20782;-96
2021/08/11 13:17:21;;;;;;;6.20;4.30;;;;;;;;;;5051527;28;20790;-96
2021/08/11 13:19:48;;;;;;;5.03;4.00;;;;;;;;;;5068000;28;20734;-96
2021/08/11 13:22:20;;;;;;;4.77;3.90;;;;;;;;;;5068534;28;20979;-96
2021/08/11 13:24:48;;;;;;;4.63;3.65;;;;;;;;;;5068222;28;20401;-95
2021/08/11 13:27:15;;;;;;;4.97;3.70;;;;;;;;;;5060715;28;20418;-96
2021/08/11 13:29:41;;;;;;;6.00;3.80;;;;;;;;;;5060642;28;20415;-96
2021/08/11 13:32:09;;;;;;;4.38;3.97;;;;;;;;;;5063997;28;20399;-96
2021/08/11 13:34:38;;;;;;;6.30;3.77;;;;;;;;;;5065573;28;20405;-96
2021/08/11 13:37:07;;;;;;;5.93;3.70;;;;;;;;;;5048169;28;20419;-96
2021/08/11 13:39:34;;;;;;;5.13;3.63;;;;;;;;;;5042985;28;20417;-95
2021/08/11 13:42:01;;;;;;;5.63;3.90;;;;;;;;;;5049300;28;20406;-96
2021/08/11 13:44:28;;;;;;;5.82;3.70;;;;;;;;;;5041928;28;20429;-96
2021/08/11 13:46:55;;;;;;;5.53;3.72;;;;;;;;;;5047791;28;20411;-96
2021/08/11 13:49:22;;;;;;;4.88;3.80;;;;;;;;;;5043911;28;20434;-96
2021/08/11 13:51:53;;;;;;;6.10;3.73;;;;;;;;;;5048246;28;20408;-96
2021/08/11 13:54:22;;;;;;;4.13;3.72;;;;;;;;;;5045703;28;20783;-95
2021/08/11 13:56:49;;;;;;;4.95;3.70;;;;;;;;;;5046750;28;20439;-96
2021/08/11 13:59:16;;;;;;;5.22;3.70;;;;;;;;;;5047193;28;20407;-95
2021/08/11 14:01:43;;;;;;;6.85;3.80;;;;;;;;;;5047944;28;20422;-95
2021/08/11 14:04:10;;;;;;;6.28;4.10;;;;;;;;;;5039951;28;20955;-96
2021/08/11 14:06:38;;;;;;;5.78;3.80;;;;;;;;;;5043504;28;20420;-96
2021/08/11 14:09:06;;;;;;;6.53;3.88;;;;;;;;;;5048850;28;20417;-95
2021/08/11 14:11:34;;;;;;;4.53;3.90;;;;;;;;;;5046456;28;20414;-96
2021/08/11 14:14:00;;;;;;;5.72;3.53;;;;;;;;;;5047052;28;20416;-96
2021/08/11 14:16:28;;;;;;;6.97;4.43;;;;;;;;;;5048322;28;20439;-96
2021/08/11 14:18:55;;;;;;;4.40;4.00;;;;;;;;;;5042914;28;20424;-96
2021/08/11 14:21:22;;;;;;;6.35;3.80;;;;;;;;;;5038630;28;20421;-96
2021/08/11 14:23:49;;;;;;;4.93;3.80;;;;;;;;;;5036957;28;20418;-96
2021/08/11 14:26:17;;;;;;;5.47;3.90;;;;;;;;;;5025554;28;20416;-96
2021/08/11 14:28:44;;;;;;;4.65;4.05;;;;;;;;;;5035517;28;20916;-96
2021/08/11 14:31:11;;;;;;;6.43;3.80;;;;;;;;;;5031148;28;20904;-96
2021/08/11 14:33:38;;;;;;;4.45;3.83;;;;;;;;;;5030157;28;20513;-96
2021/08/11 14:36:07;;;;;;;4.20;3.80;;;;;;;;;;5033842;28;20406;-96
2021/08/11 14:38:34;;;;;;;6.35;4.38;;;;;;;;;;5035120;28;20469;-96
2021/08/11 14:41:01;;;;;;;4.78;4.22;;;;;;;;;;5038925;28;20891;-96
2021/08/11 14:43:30;;;;;;;6.75;3.80;;;;;;;;;;5034510;28;20438;-95
2021/08/11 14:45:57;;;;;;;4.43;3.70;;;;;;;;;;5039890;28;20771;-96
2021/08/11 14:48:24;;;;;;;5.20;3.70;;;;;;;;;;5042240;28;20404;-96
2021/08/11 14:50:51;;;;;;;4.45;4.05;;;;;;;;;;5040452;28;20891;-96
2021/08/11 14:53:18;;;;;;;4.40;3.80;;;;;;;;;;5035083;28;20495;-96
2021/08/11 14:55:46;;;;;;;6.13;4.20;;;;;;;;;;5043302;28;20437;-96